Time;durP1;ratioP1;P1;durP2;ratioP2;P2;SDS_P1;SDS_P2;PMS_P1;PMS_P2;Temp;Humidity;BMP_temperature;BMP_pressure;BME280_temperature;BME280_humidity;BME280_pressure;Samples;Min_cycle;Max_cycle;Signal;HPM_P1;HPM_P2
2022/03/08 00:00:16;;;;;;;1.65;1.30;;;21.50;53.90;;;;;;5052567;28;20025;-69
2022/03/08 00:02:42;;;;;;;1.90;1.52;;;21.40;53.80;;;;;;5034770;28;20100;-69
2022/03/08 00:05:08;;;;;;;1.50;1.40;;;21.40;53.80;;;;;;5051468;28;20108;-69
2022/03/08 00:07:33;;;;;;;1.20;1.20;;;21.40;53.90;;;;;;5052540;28;20101;-69
2022/03/08 00:09:59;;;;;;;2.38;1.55;;;21.50;54.00;;;;;;5052671;28;20036;-69
2022/03/08 00:12:25;;;;;;;2.08;1.50;;;21.40;53.90;;;;;;5051059;28;20021;-69
2022/03/08 00:14:50;;;;;;;1.38;1.27;;;21.50;54.00;;;;;;5052308;28;20029;-69
2022/03/08 00:17:16;;;;;;;1.88;1.50;;;21.40;53.90;;;;;;5052527;28;20387;-69
2022/03/08 00:19:42;;;;;;;2.03;1.73;;;21.50;54.00;;;;;;5052427;28;20395;-69
2022/03/08 00:22:07;;;;;;;1.73;1.42;;;21.40;54.00;;;;;;5052182;28;20045;-69
2022/03/08 00:24:34;;;;;;;2.13;1.55;;;21.50;54.00;;;;;;5032510;28;20033;-69
2022/03/08 00:26:59;;;;;;;4.15;1.60;;;21.50;54.00;;;;;;5032034;28;20119;-69
2022/03/08 00:29:25;;;;;;;1.75;1.65;;;21.50;54.10;;;;;;5030912;28;20504;-69
2022/03/08 00:31:50;;;;;;;1.65;1.55;;;21.50;54.00;;;;;;5046759;28;20388;-69
2022/03/08 00:34:16;;;;;;;1.48;1.38;;;21.50;54.10;;;;;;5034258;28;20395;-69
2022/03/08 00:36:42;;;;;;;1.45;1.35;;;21.50;54.10;;;;;;5052032;28;20102;-69
2022/03/08 00:39:07;;;;;;;1.60;1.50;;;21.50;54.10;;;;;;5051162;28;20025;-69
2022/03/08 00:41:33;;;;;;;1.95;1.60;;;21.50;54.10;;;;;;5051752;28;20071;-69
2022/03/08 00:43:59;;;;;;;3.83;1.77;;;21.50;54.10;;;;;;5051009;28;20159;-69
2022/03/08 00:46:24;;;;;;;1.50;1.40;;;21.50;54.10;;;;;;5050868;28;20107;-69
2022/03/08 00:48:50;;;;;;;1.58;1.48;;;21.50;54.10;;;;;;5051947;28;20025;-69
2022/03/08 00:51:16;;;;;;;4.15;1.70;;;21.50;54.20;;;;;;5051970;28;20024;-69
2022/03/08 00:53:42;;;;;;;1.38;1.27;;;21.50;54.30;;;;;;5051074;28;20017;-69
2022/03/08 00:56:07;;;;;;;1.98;1.60;;;21.50;54.20;;;;;;5050659;28;20513;-69
2022/03/08 00:58:35;;;;;;;1.60;1.50;;;21.50;54.20;;;;;;5051869;28;20475;-69
2022/03/08 01:01:00;;;;;;;1.90;1.80;;;21.50;54.20;;;;;;5050982;28;20022;-69
2022/03/08 01:03:26;;;;;;;1.73;1.63;;;21.50;54.20;;;;;;5051605;28;20021;-69
2022/03/08 01:05:52;;;;;;;1.70;1.60;;;21.50;54.20;;;;;;5051961;28;20032;-69
2022/03/08 01:08:17;;;;;;;2.00;1.50;;;21.50;54.30;;;;;;5051855;28;20059;-69
2022/03/08 01:10:43;;;;;;;2.08;1.88;;;21.50;54.30;;;;;;5037747;28;20092;-69
2022/03/08 01:13:09;;;;;;;1.60;1.50;;;21.50;54.30;;;;;;5055724;28;20057;-69
2022/03/08 01:15:34;;;;;;;1.60;1.50;;;21.50;54.30;;;;;;5055602;28;20104;-69
2022/03/08 01:18:00;;;;;;;1.60;1.50;;;21.50;54.30;;;;;;5055686;28;20081;-69
2022/03/08 01:20:26;;;;;;;2.20;1.40;;;21.50;54.40;;;;;;5037716;28;20542;-69
2022/03/08 01:22:51;;;;;;;2.15;1.70;;;21.50;54.30;;;;;;5046424;28;20099;-69
2022/03/08 01:25:18;;;;;;;1.65;1.55;;;21.50;54.40;;;;;;5055387;28;20021;-69
2022/03/08 01:27:43;;;;;;;1.70;1.60;;;21.50;54.40;;;;;;5055298;28;20029;-70
2022/03/08 01:30:11;;;;;;;1.50;1.40;;;21.50;54.40;;;;;;5055533;28;20052;-70
2022/03/08 01:32:37;;;;;;;2.78;1.80;;;21.50;54.50;;;;;;5037626;28;20056;-69
2022/03/08 01:35:03;;;;;;;1.80;1.70;;;21.50;54.40;;;;;;5054366;28;20081;-69
2022/03/08 01:37:29;;;;;;;1.75;1.40;;;21.50;54.40;;;;;;5054108;28;20025;-69
2022/03/08 01:39:54;;;;;;;1.70;1.60;;;21.50;54.40;;;;;;5055191;28;20036;-69
2022/03/08 01:42:22;;;;;;;1.60;1.50;;;21.50;54.40;;;;;;5055082;28;20021;-69
2022/03/08 01:44:48;;;;;;;2.30;1.60;;;21.50;54.40;;;;;;5037376;28;20116;-70
2022/03/08 01:47:15;;;;;;;1.85;1.75;;;21.50;54.50;;;;;;5055444;28;20108;-69
2022/03/08 01:49:41;;;;;;;1.95;1.80;;;21.50;54.50;;;;;;5053765;28;20064;-69
2022/03/08 01:52:07;;;;;;;2.40;1.52;;;21.50;54.50;;;;;;5054981;28;20052;-69
2022/03/08 01:54:32;;;;;;;1.55;1.45;;;21.50;54.50;;;;;;5053774;28;20452;-69
2022/03/08 01:56:58;;;;;;;1.95;1.77;;;21.50;54.50;;;;;;5054945;28;20029;-70
2022/03/08 01:59:23;;;;;;;1.80;1.70;;;21.50;54.50;;;;;;5053925;28;20029;-69
2022/03/08 02:01:49;;;;;;;2.05;1.67;;;21.50;54.50;;;;;;5054852;28;20040;-69
2022/03/08 02:04:15;;;;;;;1.63;1.52;;;21.50;54.50;;;;;;5054797;28;20036;-69
2022/03/08 02:06:40;;;;;;;1.80;1.70;;;21.50;54.60;;;;;;5054813;28;20029;-69
2022/03/08 02:09:06;;;;;;;1.60;1.50;;;21.50;54.60;;;;;;5053458;28;20021;-69
2022/03/08 02:11:32;;;;;;;2.00;1.80;;;21.50;54.60;;;;;;5036981;28;20127;-69
2022/03/08 02:13:57;;;;;;;1.75;1.65;;;21.50;54.60;;;;;;5036816;28;20021;-69
2022/03/08 02:16:23;;;;;;;1.60;1.50;;;21.50;54.60;;;;;;5054531;28;20063;-69
2022/03/08 02:18:49;;;;;;;1.70;1.58;;;21.50;54.60;;;;;;5053346;28;20029;-69
2022/03/08 02:21:14;;;;;;;2.58;1.45;;;21.50;54.60;;;;;;5054182;28;20036;-69
2022/03/08 02:23:40;;;;;;;1.50;1.40;;;21.50;54.70;;;;;;5041620;28;20056;-69
2022/03/08 02:26:06;;;;;;;1.92;1.73;;;21.50;54.70;;;;;;5033338;28;20026;-69
2022/03/08 02:28:31;;;;;;;1.52;1.42;;;21.50;54.70;;;;;;5034162;28;20026;-69
2022/03/08 02:30:57;;;;;;;2.05;1.85;;;21.50;54.70;;;;;;5053191;28;20064;-69
2022/03/08 02:33:23;;;;;;;3.15;1.70;;;21.50;54.70;;;;;;5053183;28;20479;-69
2022/03/08 02:35:48;;;;;;;1.60;1.50;;;21.50;54.70;;;;;;5054384;28;20057;-69
2022/03/08 02:38:14;;;;;;;1.92;1.70;;;21.50;54.70;;;;;;5036067;28;20116;-69
2022/03/08 02:40:41;;;;;;;2.08;1.65;;;21.50;54.70;;;;;;5054058;28;20029;-69
2022/03/08 02:43:08;;;;;;;1.70;1.60;;;21.50;54.70;;;;;;5036611;28;20099;-69
2022/03/08 02:45:33;;;;;;;1.60;1.50;;;21.50;54.70;;;;;;5053930;28;20043;-69
2022/03/08 02:47:59;;;;;;;1.60;1.50;;;21.50;54.70;;;;;;5052921;28;20446;-69
2022/03/08 02:50:25;;;;;;;1.77;1.67;;;21.50;54.70;;;;;;5052878;28;20491;-69
2022/03/08 02:52:52;;;;;;;1.85;1.70;;;21.50;54.70;;;;;;5035638;28;20397;-69
2022/03/08 02:55:20;;;;;;;2.22;1.70;;;21.50;54.70;;;;;;5036215;28;20024;-69
2022/03/08 02:57:46;;;;;;;1.95;1.70;;;21.50;54.70;;;;;;5052601;28;20108;-69
2022/03/08 03:00:13;;;;;;;2.72;2.08;;;21.50;54.80;;;;;;5036031;28;20096;-69
2022/03/08 03:02:38;;;;;;;2.00;1.80;;;21.50;54.80;;;;;;5052407;28;20089;-69
2022/03/08 03:05:04;;;;;;;1.77;1.67;;;21.50;54.80;;;;;;5052842;28;20404;-69
2022/03/08 03:07:30;;;;;;;1.67;1.58;;;21.50;54.80;;;;;;5035599;28;20036;-69
2022/03/08 03:09:56;;;;;;;3.50;1.73;;;21.50;54.80;;;;;;5052384;28;20032;-69
2022/03/08 03:12:21;;;;;;;1.45;1.35;;;21.50;54.80;;;;;;5053669;28;20059;-69
2022/03/08 03:14:47;;;;;;;1.52;1.42;;;21.50;54.80;;;;;;5053570;28;20029;-69
2022/03/08 03:17:13;;;;;;;1.60;1.50;;;21.50;54.90;;;;;;5052349;28;20479;-69
2022/03/08 03:19:38;;;;;;;1.90;1.63;;;21.50;54.90;;;;;;5053275;28;20036;-69
2022/03/08 03:22:04;;;;;;;1.73;1.63;;;21.50;54.90;;;;;;5052851;28;20112;-69
2022/03/08 03:24:29;;;;;;;1.60;1.50;;;21.50;54.90;;;;;;5053146;28;20040;-69
2022/03/08 03:26:55;;;;;;;5.32;1.83;;;21.50;54.90;;;;;;5053197;28;20025;-69
2022/03/08 03:29:21;;;;;;;2.30;1.70;;;21.50;54.90;;;;;;5053217;28;20131;-69
2022/03/08 03:31:46;;;;;;;5.47;1.55;;;21.50;54.90;;;;;;5037496;28;20096;-69
2022/03/08 03:34:12;;;;;;;2.17;1.75;;;21.50;54.90;;;;;;5033181;28;20029;-69
2022/03/08 03:36:38;;;;;;;2.47;1.52;;;21.50;54.90;;;;;;5033034;28;20117;-69
2022/03/08 03:39:04;;;;;;;1.80;1.70;;;21.50;54.90;;;;;;5048727;28;20037;-69
2022/03/08 03:41:30;;;;;;;2.60;1.90;;;21.50;55.00;;;;;;5048424;28;20025;-69
2022/03/08 03:43:56;;;;;;;1.70;1.60;;;21.50;55.00;;;;;;5032925;28;20032;-69
2022/03/08 03:46:21;;;;;;;2.35;1.60;;;21.50;54.90;;;;;;5048398;28;20029;-69
2022/03/08 03:48:47;;;;;;;1.77;1.67;;;21.50;55.00;;;;;;5032700;28;20061;-69
2022/03/08 03:51:14;;;;;;;2.38;1.73;;;21.50;55.00;;;;;;5048091;28;20017;-69
2022/03/08 03:53:40;;;;;;;1.85;1.70;;;21.50;55.00;;;;;;5048018;28;20025;-69
2022/03/08 03:56:05;;;;;;;1.80;1.70;;;21.50;55.00;;;;;;5032831;28;20388;-69
2022/03/08 03:58:31;;;;;;;1.75;1.50;;;21.50;55.00;;;;;;5032925;28;20100;-69
2022/03/08 04:00:57;;;;;;;1.60;1.50;;;21.50;55.00;;;;;;5032673;28;20086;-69
2022/03/08 04:03:23;;;;;;;1.73;1.60;;;21.50;55.00;;;;;;5032623;28;20038;-70
2022/03/08 04:05:48;;;;;;;1.67;1.58;;;21.50;55.00;;;;;;5047836;28;20030;-69
2022/03/08 04:08:15;;;;;;;2.22;1.65;;;21.40;55.00;;;;;;5032685;28;20121;-70
2022/03/08 04:10:41;;;;;;;2.03;1.90;;;21.40;55.00;;;;;;5047699;28;20372;-70
2022/03/08 04:13:07;;;;;;;1.90;1.80;;;21.40;55.00;;;;;;5047885;28;20025;-69
2022/03/08 04:15:33;;;;;;;1.80;1.70;;;21.50;55.00;;;;;;5047835;28;20500;-69
2022/03/08 04:17:58;;;;;;;2.47;1.55;;;21.40;55.00;;;;;;5032451;28;20025;-69
2022/03/08 04:20:24;;;;;;;1.38;1.27;;;21.40;55.00;;;;;;5032441;28;20014;-69
2022/03/08 04:22:50;;;;;;;1.50;1.40;;;21.40;55.00;;;;;;5050766;28;20052;-69
2022/03/08 04:25:15;;;;;;;3.10;1.75;;;21.40;55.00;;;;;;5052258;28;20479;-70
2022/03/08 04:27:41;;;;;;;2.00;1.90;;;21.40;55.00;;;;;;5050352;28;20021;-69
2022/03/08 04:30:08;;;;;;;2.35;1.67;;;21.40;55.00;;;;;;5050910;28;20029;-69
2022/03/08 04:32:33;;;;;;;3.95;1.90;;;21.40;55.00;;;;;;5047962;28;20022;-69
2022/03/08 04:34:59;;;;;;;1.70;1.60;;;21.40;55.00;;;;;;5047322;28;20021;-69
2022/03/08 04:37:24;;;;;;;1.67;1.58;;;21.40;55.00;;;;;;5032381;28;20025;-69
2022/03/08 04:39:50;;;;;;;2.35;1.52;;;21.40;55.00;;;;;;5032169;28;20104;-69
2022/03/08 04:42:16;;;;;;;2.00;1.80;;;21.40;55.10;;;;;;5032334;28;20032;-69
2022/03/08 04:44:41;;;;;;;1.77;1.65;;;21.40;55.00;;;;;;5036429;28;20021;-69
2022/03/08 04:47:07;;;;;;;1.63;1.52;;;21.40;55.10;;;;;;5036413;28;20025;-69
2022/03/08 04:49:33;;;;;;;1.58;1.48;;;21.40;55.00;;;;;;5035857;28;20022;-69
2022/03/08 04:51:58;;;;;;;2.22;1.40;;;21.40;55.20;;;;;;5036280;28;20479;-69
2022/03/08 04:54:24;;;;;;;2.28;1.50;;;21.40;55.10;;;;;;5036386;28;20080;-69
2022/03/08 04:56:49;;;;;;;1.70;1.60;;;21.40;55.20;;;;;;5036022;28;20061;-69
2022/03/08 04:59:15;;;;;;;1.60;1.50;;;21.40;55.20;;;;;;5036359;28;20036;-69
2022/03/08 05:01:41;;;;;;;2.55;2.15;;;21.40;55.10;;;;;;5035996;28;20408;-69
2022/03/08 05:04:06;;;;;;;1.92;1.60;;;21.40;55.20;;;;;;5035790;28;20553;-69
2022/03/08 05:06:32;;;;;;;1.50;1.40;;;21.40;55.20;;;;;;5036176;28;20084;-69
2022/03/08 05:08:58;;;;;;;3.05;1.70;;;21.40;55.20;;;;;;5035893;28;20025;-69
2022/03/08 05:11:24;;;;;;;1.98;1.65;;;21.40;55.20;;;;;;5051444;28;20402;-69
2022/03/08 05:13:50;;;;;;;2.45;1.70;;;21.40;55.20;;;;;;5035895;28;20022;-69
2022/03/08 05:16:16;;;;;;;1.77;1.67;;;21.40;55.20;;;;;;5036062;28;20498;-69
2022/03/08 05:18:42;;;;;;;2.08;1.60;;;21.40;55.20;;;;;;5051071;28;20034;-69
2022/03/08 05:21:07;;;;;;;2.10;1.83;;;21.30;55.20;;;;;;5035612;28;20112;-69
2022/03/08 05:23:33;;;;;;;1.70;1.60;;;21.30;55.20;;;;;;5053435;28;20068;-69
2022/03/08 05:25:58;;;;;;;1.60;1.50;;;21.30;55.20;;;;;;5055544;28;20064;-69
2022/03/08 05:28:24;;;;;;;3.55;1.73;;;21.30;55.20;;;;;;5055622;28;20033;-69
2022/03/08 05:30:50;;;;;;;1.80;1.70;;;21.40;55.30;;;;;;5034140;28;20438;-69
2022/03/08 05:33:16;;;;;;;1.50;1.40;;;21.40;55.30;;;;;;5035378;28;20033;-69
2022/03/08 05:35:42;;;;;;;1.60;1.50;;;21.30;55.20;;;;;;5035511;28;20029;-70
2022/03/08 05:38:08;;;;;;;1.60;1.50;;;21.40;55.30;;;;;;5035409;28;20024;-69
2022/03/08 05:40:33;;;;;;;1.75;1.65;;;21.30;55.20;;;;;;5035663;28;20026;-70
2022/03/08 05:43:01;;;;;;;1.90;1.80;;;21.40;55.30;;;;;;5035162;28;20033;-70
2022/03/08 05:45:27;;;;;;;10.32;1.48;;;21.30;55.30;;;;;;5035358;28;20018;-70
2022/03/08 05:47:53;;;;;;;1.55;1.45;;;21.30;55.30;;;;;;5033627;28;20021;-70
2022/03/08 05:50:18;;;;;;;2.78;1.60;;;21.40;55.40;;;;;;5035173;28;20491;-70
2022/03/08 05:52:44;;;;;;;2.00;1.90;;;21.40;55.40;;;;;;5035176;28;20489;-70
2022/03/08 05:55:10;;;;;;;2.95;1.60;;;21.30;55.40;;;;;;5034249;28;20595;-70
2022/03/08 05:57:35;;;;;;;1.45;1.35;;;21.40;55.40;;;;;;5033987;28;20527;-70
2022/03/08 06:00:01;;;;;;;2.45;1.60;;;21.40;55.40;;;;;;5033782;28;20029;-70
2022/03/08 06:02:27;;;;;;;2.83;1.60;;;21.40;55.40;;;;;;5017131;28;20495;-70
2022/03/08 06:04:52;;;;;;;1.77;1.67;;;21.40;55.40;;;;;;5033669;28;20026;-70
2022/03/08 06:07:20;;;;;;;1.60;1.50;;;21.40;55.40;;;;;;5034709;28;20387;-70
2022/03/08 06:09:45;;;;;;;2.17;1.83;;;21.40;55.40;;;;;;5034838;28;20029;-70
2022/03/08 06:12:11;;;;;;;1.60;1.50;;;21.30;55.40;;;;;;5034764;28;20446;-70
2022/03/08 06:14:37;;;;;;;2.55;1.60;;;21.40;55.50;;;;;;5035323;28;20025;-70
2022/03/08 06:17:03;;;;;;;1.67;1.58;;;21.30;56.40;;;;;;5034471;28;20470;-70
2022/03/08 06:19:28;;;;;;;1.80;1.70;;;21.40;55.50;;;;;;5033479;28;20026;-70
2022/03/08 06:21:54;;;;;;;1.70;1.60;;;21.30;55.50;;;;;;5034426;28;20041;-70
2022/03/08 06:24:20;;;;;;;1.50;1.40;;;21.30;55.50;;;;;;5038110;28;20029;-70
2022/03/08 06:26:45;;;;;;;1.58;1.42;;;21.40;55.50;;;;;;5040040;28;20120;-70
2022/03/08 06:29:11;;;;;;;1.73;1.63;;;21.30;55.50;;;;;;5041171;28;20112;-69
2022/03/08 06:31:36;;;;;;;1.88;1.77;;;21.30;55.50;;;;;;5049120;28;20028;-69
2022/03/08 06:34:02;;;;;;;2.65;1.70;;;21.30;55.50;;;;;;5042478;28;20021;-69
2022/03/08 06:36:28;;;;;;;1.67;1.58;;;21.40;55.60;;;;;;5049041;28;20491;-70
2022/03/08 06:38:54;;;;;;;1.63;1.52;;;21.30;55.50;;;;;;5048148;28;20025;-70
2022/03/08 06:41:19;;;;;;;1.70;1.60;;;21.40;55.60;;;;;;5042762;28;20032;-70
2022/03/08 06:43:45;;;;;;;1.70;1.60;;;21.30;55.50;;;;;;5046118;28;20036;-70
2022/03/08 06:46:11;;;;;;;1.40;1.30;;;21.30;55.60;;;;;;5054061;28;20025;-69
2022/03/08 06:48:37;;;;;;;1.58;1.42;;;21.30;55.50;;;;;;5054090;28;20090;-70
2022/03/08 06:51:02;;;;;;;1.67;1.58;;;21.40;55.60;;;;;;5035812;28;20021;-70
2022/03/08 06:53:28;;;;;;;2.88;2.65;;;21.40;55.60;;;;;;5036172;28;20009;-70
2022/03/08 06:55:54;;;;;;;3.35;3.05;;;21.30;54.90;;;;;;5053902;28;20483;-70
2022/03/08 06:58:20;;;;;;;3.35;3.05;;;21.20;54.50;;;;;;5053598;28;20036;-69
2022/03/08 07:00:45;;;;;;;3.30;3.00;;;21.20;54.40;;;;;;5052752;28;20415;-70
2022/03/08 07:03:11;;;;;;;3.38;3.08;;;21.10;54.40;;;;;;5052458;28;20021;-69
2022/03/08 07:05:38;;;;;;;3.15;2.85;;;21.00;54.30;;;;;;5035901;28;20248;-69
2022/03/08 07:08:04;;;;;;;3.00;2.80;;;21.00;54.20;;;;;;5053524;28;20029;-69
2022/03/08 07:10:30;;;;;;;2.88;2.67;;;20.90;54.20;;;;;;5052303;28;20091;-69
2022/03/08 07:12:56;;;;;;;3.30;3.00;;;20.90;54.10;;;;;;5052174;28;20475;-70
2022/03/08 07:15:22;;;;;;;3.00;2.80;;;20.80;54.10;;;;;;5053645;28;20487;-69
2022/03/08 07:17:47;;;;;;;3.60;3.30;;;20.80;54.10;;;;;;5052263;28;20025;-69
2022/03/08 07:20:13;;;;;;;5.07;3.40;;;20.80;54.00;;;;;;5053167;28;20075;-70
2022/03/08 07:22:39;;;;;;;3.08;2.78;;;20.80;54.10;;;;;;5048157;28;20045;-69
2022/03/08 07:25:05;;;;;;;3.40;3.10;;;20.80;54.10;;;;;;4999421;28;20100;-69
2022/03/08 07:27:31;;;;;;;2.88;2.67;;;20.80;54.00;;;;;;4999342;28;20108;-69
2022/03/08 07:29:57;;;;;;;3.40;3.10;;;20.70;53.80;;;;;;5033153;28;20581;-69
2022/03/08 07:32:22;;;;;;;3.55;3.25;;;20.70;53.80;;;;;;5035065;28;20100;-69
2022/03/08 07:34:48;;;;;;;3.08;2.80;;;20.70;53.80;;;;;;5053314;28;20104;-69
2022/03/08 07:37:13;;;;;;;3.17;2.90;;;20.70;53.80;;;;;;5051840;28;20090;-69
2022/03/08 07:39:39;;;;;;;2.83;2.63;;;20.70;53.70;;;;;;5053127;28;20112;-69
2022/03/08 07:42:05;;;;;;;2.90;2.67;;;20.60;53.60;;;;;;5052680;28;20064;-69
2022/03/08 07:44:31;;;;;;;3.00;2.70;;;20.60;53.70;;;;;;5053210;28;20107;-69
2022/03/08 07:46:57;;;;;;;2.90;2.70;;;20.60;53.60;;;;;;5052889;28;20039;-69
2022/03/08 07:49:23;;;;;;;3.13;2.80;;;20.60;53.60;;;;;;5052729;28;20506;-69
2022/03/08 07:51:49;;;;;;;3.55;3.20;;;20.60;53.60;;;;;;5051754;28;20048;-70
2022/03/08 07:54:15;;;;;;;4.32;2.92;;;20.60;53.50;;;;;;5051463;28;20091;-71
2022/03/08 07:56:41;;;;;;;5.60;3.17;;;20.60;53.50;;;;;;5023491;28;20072;-70
2022/03/08 07:59:06;;;;;;;4.43;3.35;;;20.50;53.40;;;;;;5031389;28;20049;-70
2022/03/08 08:01:32;;;;;;;6.97;3.03;;;20.50;53.40;;;;;;5030957;28;20551;-70
2022/03/08 08:03:58;;;;;;;5.47;3.13;;;20.50;53.40;;;;;;5031494;28;20021;-70
2022/03/08 08:06:23;;;;;;;5.43;3.00;;;20.50;53.50;;;;;;5031169;28;20451;-70
2022/03/08 08:08:49;;;;;;;5.18;3.10;;;20.50;53.40;;;;;;5013574;28;20499;-70
2022/03/08 08:11:14;;;;;;;6.65;3.65;;;20.50;53.40;;;;;;5030959;28;20022;-70
2022/03/08 08:13:40;;;;;;;8.68;3.70;;;20.50;53.40;;;;;;5031966;28;20550;-70
2022/03/08 08:16:06;;;;;;;7.32;3.50;;;20.50;53.30;;;;;;5037666;28;20052;-70
2022/03/08 08:18:31;;;;;;;8.52;3.65;;;20.50;53.40;;;;;;5049918;28;20398;-70
2022/03/08 08:20:57;;;;;;;7.60;3.20;;;20.40;53.30;;;;;;5031071;28;20036;-70
2022/03/08 08:23:23;;;;;;;7.13;3.45;;;20.50;53.30;;;;;;5048598;28;20523;-70
2022/03/08 08:25:49;;;;;;;6.05;3.38;;;20.40;53.30;;;;;;5052316;28;20017;-70
2022/03/08 08:28:15;;;;;;;6.93;3.45;;;20.40;53.20;;;;;;5050927;28;20494;-70
2022/03/08 08:30:40;;;;;;;8.52;3.55;;;20.40;53.20;;;;;;5051053;28;20021;-70
2022/03/08 08:33:06;;;;;;;7.40;3.53;;;20.40;53.20;;;;;;5052216;28;20033;-70
2022/03/08 08:35:32;;;;;;;9.88;3.47;;;20.40;53.20;;;;;;5051117;28;20124;-70
2022/03/08 08:37:57;;;;;;;7.40;3.95;;;20.40;53.20;;;;;;5052164;28;20060;-70
2022/03/08 08:40:23;;;;;;;4.57;2.85;;;20.40;53.20;;;;;;5050857;28;20029;-70
2022/03/08 08:42:49;;;;;;;7.03;3.22;;;20.40;53.20;;;;;;5034559;28;20021;-70
2022/03/08 08:45:14;;;;;;;8.40;3.60;;;20.40;53.20;;;;;;5052119;28;20032;-70
2022/03/08 08:47:40;;;;;;;6.00;3.28;;;20.40;53.20;;;;;;5052090;28;20379;-70
2022/03/08 08:50:06;;;;;;;5.32;3.25;;;20.40;53.20;;;;;;5050565;28;20064;-70
2022/03/08 08:52:31;;;;;;;7.28;3.45;;;20.40;53.20;;;;;;5050998;28;20017;-70
2022/03/08 08:54:57;;;;;;;4.72;3.05;;;20.40;53.10;;;;;;5051807;28;20029;-70
2022/03/08 08:57:23;;;;;;;5.38;3.00;;;20.40;53.20;;;;;;5052134;28;20059;-70
2022/03/08 08:59:48;;;;;;;4.68;2.90;;;20.40;53.20;;;;;;5052119;28;20021;-70
2022/03/08 09:02:14;;;;;;;6.93;3.00;;;20.40;53.10;;;;;;5051972;28;20029;-70
2022/03/08 09:04:39;;;;;;;5.20;3.08;;;20.40;53.10;;;;;;5052024;28;20369;-70
2022/03/08 09:07:05;;;;;;;4.18;2.85;;;20.40;53.10;;;;;;5050668;28;20033;-70
2022/03/08 09:09:31;;;;;;;6.72;2.60;;;20.40;53.10;;;;;;5051628;28;20067;-70
2022/03/08 09:11:57;;;;;;;6.60;3.08;;;20.40;53.10;;;;;;5050933;28;20490;-70
2022/03/08 09:14:23;;;;;;;4.43;3.05;;;20.40;53.10;;;;;;5034018;28;20096;-70
2022/03/08 09:16:48;;;;;;;8.38;3.20;;;20.40;53.00;;;;;;5051663;28;20036;-70
2022/03/08 09:19:14;;;;;;;6.03;3.70;;;20.40;53.10;;;;;;5051852;28;20025;-70
2022/03/08 09:21:40;;;;;;;4.45;2.88;;;20.40;53.10;;;;;;5051469;28;20025;-70
2022/03/08 09:24:06;;;;;;;4.93;2.75;;;20.40;53.10;;;;;;5030152;28;20038;-70
2022/03/08 09:26:31;;;;;;;4.80;2.75;;;20.40;53.00;;;;;;5030760;28;20032;-70
2022/03/08 09:28:57;;;;;;;5.22;2.72;;;20.40;53.10;;;;;;5031947;28;20742;-70
2022/03/08 09:31:23;;;;;;;5.03;2.90;;;20.40;53.00;;;;;;5033836;28;20044;-70
2022/03/08 09:33:50;;;;;;;4.22;3.00;;;20.40;53.00;;;;;;5034508;28;20080;-70
2022/03/08 09:36:16;;;;;;;5.07;3.08;;;20.40;53.00;;;;;;5034190;28;20492;-70
2022/03/08 09:38:41;;;;;;;4.45;3.22;;;20.40;53.10;;;;;;5035284;28;20053;-70
2022/03/08 09:41:07;;;;;;;5.53;2.92;;;20.40;53.00;;;;;;5035469;28;20036;-70
2022/03/08 09:43:35;;;;;;;4.18;2.92;;;20.40;53.00;;;;;;5035282;28;20028;-70
2022/03/08 09:46:01;;;;;;;4.30;2.65;;;20.40;53.00;;;;;;5034106;28;20450;-70
2022/03/08 09:48:28;;;;;;;6.15;2.85;;;20.40;53.00;;;;;;5035082;28;20025;-70
2022/03/08 09:50:53;;;;;;;4.38;2.53;;;20.40;53.00;;;;;;5034079;28;20068;-70
2022/03/08 09:53:19;;;;;;;3.05;2.55;;;20.40;53.00;;;;;;5034983;28;20025;-70
2022/03/08 09:55:45;;;;;;;6.07;2.67;;;20.40;53.00;;;;;;5034158;28;20030;-70
2022/03/08 09:58:10;;;;;;;4.53;2.95;;;20.40;53.00;;;;;;5033822;28;20034;-70
2022/03/08 10:00:36;;;;;;;4.38;2.80;;;20.40;53.00;;;;;;5034989;28;20029;-70
2022/03/08 10:03:05;;;;;;;4.95;2.78;;;20.40;53.00;;;;;;5035122;28;20053;-70
2022/03/08 10:05:40;;;;;;;2.92;2.47;;;20.40;53.00;;;;;;5033163;28;20025;-70
2022/03/08 10:08:13;;;;;;;5.40;3.10;;;20.40;53.00;;;;;;5033489;28;20017;-70
2022/03/08 10:10:58;;;;;;;4.60;2.65;;;20.40;52.90;;;;;;5034846;28;20024;-70
2022/03/08 10:13:32;;;;;;;6.45;2.55;;;20.40;52.70;;;;;;5033514;28;20076;-70
2022/03/08 10:16:04;;;;;;;3.92;2.70;;;20.40;53.00;;;;;;5035912;28;20025;-70
2022/03/08 10:18:40;;;;;;;2.50;2.30;;;20.40;52.90;;;;;;5034828;28;20045;-70
2022/03/08 10:21:27;;;;;;;3.80;2.42;;;20.40;52.90;;;;;;5017521;28;20053;-70
2022/03/08 10:23:53;;;;;;;3.80;2.50;;;20.40;52.80;;;;;;5036730;28;20055;-70
2022/03/08 10:26:19;;;;;;;3.22;2.70;;;20.30;52.90;;;;;;5036231;28;20033;-70
2022/03/08 10:28:45;;;;;;;3.47;2.55;;;20.30;52.90;;;;;;5053330;28;20384;-70
2022/03/08 10:31:14;;;;;;;3.70;2.05;;;20.40;53.00;;;;;;5053006;28;20045;-70
2022/03/08 10:33:40;;;;;;;2.60;2.17;;;20.40;53.00;;;;;;5036594;28;20040;-70
2022/03/08 10:36:16;;;;;;;4.25;2.53;;;20.40;53.00;;;;;;5052758;28;20104;-70
2022/03/08 10:39:09;;;;;;;2.95;2.33;;;20.40;52.90;;;;;;5054229;28;20020;-70
2022/03/08 10:41:59;;;;;;;3.17;2.00;;;20.40;52.70;;;;;;5052780;28;20074;-70
2022/03/08 10:44:37;;;;;;;2.95;2.00;;;20.40;52.90;;;;;;5053557;28;20048;-70
2022/03/08 10:47:10;;;;;;;4.03;2.55;;;20.40;52.90;;;;;;5054130;28;20483;-70
2022/03/08 10:50:08;;;;;;;3.60;2.40;;;20.40;52.90;;;;;;5053884;28;20115;-70
2022/03/08 10:52:36;;;;;;;3.53;2.20;;;20.40;52.60;;;;;;4992388;28;20046;-70
2022/03/08 10:55:12;;;;;;;3.65;2.33;;;20.30;52.90;;;;;;4976713;28;20034;-70
2022/03/08 10:57:39;;;;;;;3.92;2.15;;;20.40;52.80;;;;;;4976220;28;20038;-70
2022/03/08 11:00:11;;;;;;;2.85;2.08;;;20.40;52.90;;;;;;4976355;28;20069;-70
2022/03/08 11:03:00;;;;;;;3.13;2.53;;;20.40;52.90;;;;;;4976670;28;20124;-70
2022/03/08 11:05:30;;;;;;;2.55;2.22;;;20.40;52.90;;;;;;4973680;28;20038;-70
2022/03/08 11:07:57;;;;;;;4.05;2.20;;;20.40;52.90;;;;;;4976646;28;20521;-70
2022/03/08 11:10:23;;;;;;;3.58;2.22;;;20.40;53.00;;;;;;4992093;28;20035;-70
2022/03/08 11:12:48;;;;;;;3.25;2.38;;;20.40;52.90;;;;;;4976175;28;20027;-70
2022/03/08 11:15:16;;;;;;;2.78;2.20;;;20.40;52.90;;;;;;4992156;28;20448;-70
2022/03/08 11:17:46;;;;;;;3.05;2.50;;;20.40;52.90;;;;;;4992007;28;20495;-70
2022/03/08 11:20:12;;;;;;;2.42;2.22;;;20.40;52.80;;;;;;4975630;28;20598;-70
2022/03/08 11:22:38;;;;;;;3.40;2.50;;;20.40;52.90;;;;;;4975361;28;20153;-70
2022/03/08 11:25:08;;;;;;;2.35;2.13;;;20.40;52.80;;;;;;4992172;28;20046;-70
2022/03/08 11:27:35;;;;;;;3.13;2.17;;;20.40;52.80;;;;;;4970949;28;20419;-70
2022/03/08 11:30:01;;;;;;;2.50;2.13;;;20.40;52.80;;;;;;5015841;28;20080;-70
2022/03/08 11:32:42;;;;;;;3.03;2.30;;;20.40;52.80;;;;;;5015595;28;20022;-70
2022/03/08 11:35:41;;;;;;;2.08;1.90;;;20.40;52.70;;;;;;5015339;28;20017;-70
2022/03/08 11:38:12;;;;;;;2.53;2.17;;;20.40;52.70;;;;;;5032243;28;20060;-70
2022/03/08 11:40:37;;;;;;;3.28;2.22;;;20.40;52.90;;;;;;5032050;28;20022;-70
2022/03/08 11:43:04;;;;;;;3.47;2.80;;;20.40;52.90;;;;;;5033120;28;20033;-70
2022/03/08 11:45:30;;;;;;;2.80;2.45;;;20.40;52.90;;;;;;5031731;28;20487;-70
2022/03/08 11:47:57;;;;;;;2.50;2.30;;;20.40;52.90;;;;;;5015355;28;20032;-70
2022/03/08 11:50:28;;;;;;;2.70;1.98;;;20.40;52.80;;;;;;5031425;28;20454;-70
2022/03/08 11:53:12;;;;;;;3.38;2.30;;;20.40;52.80;;;;;;5032282;28;20071;-70
2022/03/08 11:55:44;;;;;;;2.35;2.15;;;20.50;52.70;;;;;;5032712;28;20396;-70
2022/03/08 11:58:16;;;;;;;2.95;1.98;;;20.40;52.80;;;;;;5032825;28;20033;-70
2022/03/08 12:00:59;;;;;;;2.25;2.05;;;20.40;52.80;;;;;;5032642;28;20483;-70
2022/03/08 12:03:28;;;;;;;3.28;2.20;;;20.40;52.60;;;;;;5032583;28;20029;-70
2022/03/08 12:06:04;;;;;;;2.35;2.15;;;20.40;52.90;;;;;;5032870;28;20029;-70
2022/03/08 12:08:30;;;;;;;3.08;1.88;;;20.40;52.80;;;;;;5014933;28;20488;-70
2022/03/08 12:11:31;;;;;;;4.20;2.30;;;20.40;52.80;;;;;;5032714;28;20049;-70
2022/03/08 12:14:01;;;;;;;2.60;2.10;;;20.40;52.50;;;;;;5032687;28;20018;-70
2022/03/08 12:16:26;;;;;;;2.60;1.83;;;20.40;52.80;;;;;;5031386;28;20510;-70
2022/03/08 12:18:56;;;;;;;1.95;1.83;;;20.40;52.90;;;;;;5032473;28;20029;-70
2022/03/08 12:21:25;;;;;;;2.47;1.98;;;20.40;52.80;;;;;;5014647;28;20021;-70
2022/03/08 12:23:55;;;;;;;2.55;2.10;;;20.40;52.80;;;;;;5032132;28;20132;-70
2022/03/08 12:26:24;;;;;;;1.88;1.77;;;20.40;52.80;;;;;;5032538;28;20025;-70
2022/03/08 12:29:22;;;;;;;2.17;1.98;;;20.40;52.70;;;;;;5032314;28;20025;-70
2022/03/08 12:31:57;;;;;;;2.03;1.80;;;20.50;52.50;;;;;;5003114;28;20033;-70
2022/03/08 12:34:39;;;;;;;2.20;1.85;;;20.40;52.70;;;;;;5032292;28;20034;-70
2022/03/08 12:37:10;;;;;;;1.80;1.70;;;20.50;52.60;;;;;;5031131;28;20017;-70
2022/03/08 12:40:07;;;;;;;1.83;1.73;;;20.40;52.80;;;;;;5031062;28;20025;-70
2022/03/08 12:43:07;;;;;;;2.78;1.83;;;20.50;52.60;;;;;;5032294;28;20514;-70
2022/03/08 12:45:34;;;;;;;2.33;2.00;;;20.50;52.60;;;;;;4971129;28;20043;-70
2022/03/08 12:48:19;;;;;;;1.73;1.63;;;20.40;52.90;;;;;;4955184;28;20121;-70